Time;durP1;ratioP1;P1;durP2;ratioP2;P2;SDS_P1;SDS_P2;PMS_P1;PMS_P2;Temp;Humidity;BMP_temperature;BMP_pressure;BME280_temperature;BME280_humidity;BME280_pressure;Samples;Min_cycle;Max_cycle;Signal;HPM_P1;HPM_P2
2023/10/20 06:25:25;;;;;;;32.30;21.70;;;;;;;12.90;78.62;97061.16;102676;1311;126825;-82
2023/10/20 06:28:04;;;;;;;30.10;21.10;;;;;;;12.93;78.72;97067.39;103359;1286;94495;-83
2023/10/20 06:35:43;;;;;;;;;;;;;;;;;;;;;
2023/10/20 06:47:18;;;;;;;32.60;21.40;;;;;;;13.24;79.02;97051.08;101974;1304;107613;-81
2023/10/20 06:49:47;;;;;;;34.30;22.80;;;;;;;13.31;78.90;97048.40;102115;1297;95549;-80
2023/10/20 06:52:21;;;;;;;28.30;20.00;;;;;;;13.36;78.77;97042.86;102288;1297;106201;-81
2023/10/20 06:56:09;;;;;;;;;;;;;;;;;;;;;
2023/10/20 07:17:53;;;;;;;30.20;19.80;;;;;;;14.26;78.81;97023.89;103606;1244;5050332;-85
2023/10/20 07:21:19;;;;;;;30.80;20.70;;;;;;;14.26;78.85;97024.27;108284;1243;94283;-86
2023/10/20 07:24:55;;;;;;;27.50;19.00;;;;;;;14.26;79.04;97026.36;109129;1245;107122;-85
2023/10/20 07:28:05;;;;;;;31.30;20.30;;;;;;;14.25;79.04;97024.83;108036;1241;96038;-86
2023/10/20 07:38:33;;;;;;;;;;;;;;;;;;;;;
2023/10/20 07:41:20;;;;;;;28.50;17.70;;;;;;;14.34;79.18;97012.55;106617;1257;109690;-83
2023/10/20 07:44:18;;;;;;;30.60;20.00;;;;;;;14.37;79.17;97015.96;107632;1245;95477;-82
2023/10/20 07:46:48;;;;;;;32.30;21.20;;;;;;;14.40;79.19;97018.23;107500;1242;108200;-82
2023/10/20 07:52:39;;;;;;;31.00;19.50;;;;;;;14.43;79.05;97023.66;107481;1257;96115;-81
2023/10/20 07:58:32;;;;;;;32.30;21.70;;;;;;;14.47;79.03;97016.59;102541;1292;636296;-82
2023/10/20 08:05:10;;;;;;;;;;;;;;;;;;;;;
2023/10/20 08:07:40;;;;;;;30.00;20.40;;;;;;;14.57;79.31;97014.11;106586;1267;107245;-81
2023/10/20 08:10:11;;;;;;;31.20;20.00;;;;;;;14.68;79.30;97008.35;105158;1267;95472;-81
2023/10/20 08:12:48;;;;;;;30.50;20.50;;;;;;;14.79;79.29;97003.96;105596;1263;235074;-83
2023/10/20 08:16:11;;;;;;;30.70;21.00;;;;;;;14.93;79.38;97001.14;105483;1260;94298;-83
2023/10/20 08:28:55;;;;;;;32.20;19.80;;;;;;;15.25;79.18;96991.12;102433;1295;94422;-82
2023/10/20 08:32:29;;;;;;;32.20;19.80;;;;;;;15.29;78.98;96989.61;101462;1276;5265130;-80
2023/10/20 08:36:05;;;;;;;28.20;19.10;;;;;;;15.35;78.88;96982.38;104311;1273;107996;-85
2023/10/20 09:37:40;;;;;;;27.70;16.70;;;;;;;16.19;78.66;96987.83;102589;1292;96847;-82
2023/10/20 09:40:19;;;;;;;31.10;17.40;;;;;;;16.22;78.75;96988.00;103962;1276;106743;-79
2023/10/20 09:43:36;;;;;;;27.60;16.50;;;;;;;16.25;78.64;96993.30;104276;1271;95666;-80
2023/10/20 09:46:43;;;;;;;38.20;16.80;;;;;;;16.27;78.68;96988.69;104856;1267;95429;-78
2023/10/20 09:49:37;;;;;;;25.80;15.90;;;;;;;16.29;78.63;96971.95;105522;1260;108527;-81
2023/10/20 09:52:08;;;;;;;25.30;15.30;;;;;;;16.32;78.72;96953.73;105188;1268;95598;-84
2023/10/20 09:54:50;;;;;;;23.80;14.60;;;;;;;16.34;78.73;96958.08;105313;1262;95349;-83
2023/10/20 09:57:23;;;;;;;;;;;;;;;16.36;78.60;96965.48;105022;1267;95387;-84
2023/10/20 10:15:28;;;;;;;25.70;15.80;;;;;;;17.01;78.11;96949.84;102800;1288;651648;-83
2023/10/20 10:18:30;;;;;;;23.90;15.20;;;;;;;17.15;78.26;96948.18;102626;1289;638225;-82
2023/10/20 10:21:05;;;;;;;24.80;14.80;;;;;;;17.13;78.23;96945.08;104473;1275;94338;-82
2023/10/20 10:23:33;;;;;;;28.80;16.10;;;;;;;17.14;78.26;96946.48;104677;1267;94377;-83
2023/10/20 10:26:20;;;;;;;25.20;14.50;;;;;;;17.13;78.21;96943.13;104887;1275;106401;-83
2023/10/20 10:28:49;;;;;;;25.10;15.00;;;;;;;17.11;78.25;96940.41;105219;1260;95458;-83
2023/10/20 10:31:21;;;;;;;23.30;14.40;;;;;;;17.06;78.19;96933.17;105633;1257;188196;-81
2023/10/20 10:34:06;;;;;;;26.40;15.30;;;;;;;17.03;78.27;96931.95;105405;1259;94315;-81
2023/10/20 10:37:17;;;;;;;28.80;14.90;;;;;;;16.97;78.21;96934.65;105526;1257;94421;-82
2023/10/20 10:39:50;;;;;;;25.60;14.10;;;;;;;16.93;78.02;96931.02;108438;1256;107818;-83
2023/10/20 10:42:29;;;;;;;24.40;14.90;;;;;;;16.91;78.02;96927.71;108327;1256;95551;-83
2023/10/20 10:44:58;;;;;;;24.50;14.80;;;;;;;16.90;77.98;96923.63;108425;1253;107818;-83
2023/10/20 10:47:37;;;;;;;23.40;13.60;;;;;;;16.89;77.80;96921.08;108453;1253;92979;-83
2023/10/20 10:50:34;;;;;;;26.50;15.30;;;;;;;16.91;77.95;96910.42;108478;1253;93234;-83
2023/10/20 10:53:19;;;;;;;23.00;14.30;;;;;;;16.98;77.84;96907.38;108385;1253;109579;-83
2023/10/20 10:55:50;;;;;;;23.30;13.50;;;;;;;17.06;78.06;96899.66;108375;1253;97855;-84
2023/10/20 10:58:23;;;;;;;23.80;13.70;;;;;;;17.15;77.93;96899.17;108379;1253;107602;-82
2023/10/20 11:00:54;;;;;;;25.50;14.60;;;;;;;17.22;77.81;96890.66;108524;1253;93079;-83
2023/10/20 11:03:44;;;;;;;25.00;14.20;;;;;;;17.29;77.71;96884.03;108403;1253;93287;-83
2023/10/20 11:06:44;;;;;;;23.80;13.40;;;;;;;17.34;77.98;96876.50;108390;1253;109731;-83
2023/10/20 11:09:30;;;;;;;22.90;12.90;;;;;;;17.44;77.83;96875.02;108378;1256;94908;-84
2023/10/20 11:12:17;;;;;;;28.30;13.30;;;;;;;17.53;77.80;96874.27;108434;1253;107757;-83
2023/10/20 11:14:55;;;;;;;23.10;12.50;;;;;;;17.60;77.68;96871.23;108285;1253;92921;-83
2023/10/20 11:17:46;;;;;;;;;;;;;;;;;;;;;
2023/10/20 11:20:51;;;;;;;;;;;;;;;;;;;;;
2023/10/20 11:23:51;;;;;;;24.70;13.40;;;;;;;17.84;77.34;96873.48;108389;1253;95747;-82
2023/10/20 11:26:24;;;;;;;23.10;11.80;;;;;;;17.92;77.33;96877.36;108386;1254;107612;-79
2023/10/20 11:29:00;;;;;;;26.30;12.70;;;;;;;17.99;77.32;96871.55;108421;1254;92972;-82
2023/10/20 11:31:33;;;;;;;26.80;12.80;;;;;;;18.03;77.36;96872.03;108438;1255;93010;-79
2023/10/20 11:34:01;;;;;;;21.80;11.10;;;;;;;18.06;77.30;96869.89;108499;1254;108225;-79
2023/10/20 11:36:34;;;;;;;23.40;13.30;;;;;;;18.10;77.28;96873.89;108393;1260;95894;-85
2023/10/20 11:39:37;;;;;;;23.00;12.00;;;;;;;18.17;77.32;96875.70;108445;1253;106927;-83
2023/10/20 11:42:32;;;;;;;20.40;10.90;;;;;;;18.22;77.20;96883.21;108032;1259;93299;-88
2023/10/20 11:45:37;;;;;;;23.20;12.00;;;;;;;18.27;77.04;96865.31;108170;1253;93284;-82
2023/10/20 11:48:41;;;;;;;24.20;12.30;;;;;;;18.29;77.09;96860.86;108456;1253;109430;-81
2023/10/20 11:52:08;;;;;;;;;;;;;;;;;;;;;
2023/10/20 12:04:40;;;;;;;23.50;10.80;;;;;;;18.08;76.75;96859.48;108010;1260;93078;-82
2023/10/20 12:07:09;;;;;;;17.90;9.10;;;;;;;18.06;76.70;96858.75;108124;1255;107974;-82
2023/10/20 12:09:39;;;;;;;28.30;12.60;;;;;;;18.03;76.64;96863.23;108349;1253;93864;-80
2023/10/20 12:12:08;;;;;;;19.00;10.20;;;;;;;18.01;76.47;96866.55;108532;1255;107592;-82
2023/10/20 12:16:29;;;;;;;24.10;10.60;;;;;;;17.99;76.25;96868.77;108065;1259;93362;-79
2023/10/20 12:24:47;;;;;;;18.50;9.10;;;;;;;17.91;76.46;96856.67;108001;1262;108356;-82
2023/10/20 12:28:06;;;;;;;;;;;;;;;;;;;;;
2023/10/20 12:31:22;;;;;;;21.20;9.20;;;;;;;17.85;76.37;96840.44;107757;1265;107042;-83
2023/10/20 12:33:59;;;;;;;21.30;9.30;;;;;;;17.81;76.26;96842.52;107575;1265;93234;-83
2023/10/20 12:36:42;;;;;;;;;;;;;;;;;;;;;
2023/10/20 12:40:18;;;;;;;25.20;10.10;;;;;;;17.78;76.09;96844.52;108107;1260;108331;-85
2023/10/20 12:43:20;;;;;;;23.10;10.20;;;;;;;17.72;76.10;96853.27;108013;1260;96173;-82
2023/10/20 12:45:48;;;;;;;20.00;8.50;;;;;;;17.69;76.12;96858.33;108299;1259;106469;-82
2023/10/20 12:48:20;;;;;;;21.60;8.80;;;;;;;17.67;76.03;96858.50;108355;1259;93322;-82
2023/10/20 12:50:49;;;;;;;21.20;9.50;;;;;;;17.64;75.96;96862.52;108431;1257;93076;-82
2023/10/20 12:53:21;;;;;;;18.80;9.00;;;;;;;17.59;76.07;96874.76;108365;1253;108605;-82
2023/10/20 12:55:57;;;;;;;20.90;9.80;;;;;;;17.56;75.97;96881.27;108421;1253;95451;-81
2023/10/20 12:58:27;;;;;;;23.30;10.40;;;;;;;17.52;75.81;96875.23;108461;1255;107291;-82
2023/10/20 13:00:59;;;;;;;21.40;10.70;;;;;;;17.49;75.87;96867.88;108364;1254;92981;-82
2023/10/20 13:03:34;;;;;;;;;;;;;;;17.46;75.81;96872.44;108445;1255;92965;-80
2023/10/20 13:35:36;;;;;;;19.50;9.20;;;;;;;17.32;75.61;96879.73;107745;1268;95494;-82
2023/10/20 13:44:08;;;;;;;;;;;;;;;;;;;;;
2023/10/20 13:47:02;;;;;;;21.30;8.60;;;;;;;17.35;75.53;96871.45;105703;1281;93261;-81
2023/10/20 13:50:00;;;;;;;18.80;8.10;;;;;;;17.34;75.44;96872.16;106042;1281;109023;-81
2023/10/20 13:54:29;;;;;;;;;;;;;;;;;;;;;
2023/10/20 14:31:22;;;;;;;29.10;10.70;;;;;;;17.54;74.92;96868.98;104092;1282;651197;-91
2023/10/20 14:33:58;;;;;;;23.80;10.00;;;;;;;17.54;74.91;96869.68;105316;1267;437520;-91
2023/10/20 14:36:49;;;;;;;22.20;9.40;;;;;;;17.47;74.99;96876.28;105827;1267;94258;-91
2023/10/20 14:39:35;;;;;;;22.20;10.00;;;;;;;17.41;74.93;96875.84;106361;1260;107582;-90
2023/10/20 14:42:35;;;;;;;21.20;9.90;;;;;;;17.35;75.03;96879.81;106288;1260;94534;-92
2023/10/20 14:45:03;;;;;;;21.30;9.60;;;;;;;17.29;74.95;96870.98;105968;1260;107691;-91
2023/10/20 14:47:47;;;;;;;24.80;9.60;;;;;;;17.23;74.87;96869.91;106086;1260;94208;-91
2023/10/20 14:50:32;;;;;;;;;;;;;;;;;;;;;
2023/10/20 14:53:44;;;;;;;20.90;9.60;;;;;;;17.14;74.84;96878.71;106230;1263;107638;-91
2023/10/20 14:56:18;;;;;;;22.20;10.20;;;;;;;17.12;74.89;96880.29;106079;1262;95794;-89
2023/10/20 14:59:43;;;;;;;25.30;10.10;;;;;;;17.07;74.87;96879.39;105975;1259;106609;-89
2023/10/20 15:02:19;;;;;;;22.10;9.10;;;;;;;17.06;74.78;96880.67;106115;1259;95263;-92
2023/10/20 15:05:08;;;;;;;18.20;7.90;;;;;;;17.04;74.85;96883.30;106074;1260;95209;-90
2023/10/20 15:07:40;;;;;;;20.50;9.50;;;;;;;17.02;74.82;96881.70;105928;1261;109609;-91
2023/10/20 15:10:10;;;;;;;23.40;9.70;;;;;;;17.03;74.71;96882.05;106051;1261;95686;-89
2023/10/20 15:12:42;;;;;;;22.00;8.60;;;;;;;17.02;74.71;96890.74;105915;1260;110392;-91
2023/10/20 15:15:09;;;;;;;22.80;9.10;;;;;;;16.99;74.78;96888.02;105912;1261;95284;-91
2023/10/20 15:17:42;;;;;;;25.60;10.30;;;;;;;16.99;74.67;96886.85;106167;1264;96147;-91
2023/10/20 15:20:16;;;;;;;22.50;10.60;;;;;;;16.98;74.82;96885.41;105900;1260;108180;-90
2023/10/20 15:23:21;;;;;;;23.30;9.70;;;;;;;16.96;74.81;96887.70;106151;1266;95309;-90
2023/10/20 15:25:49;;;;;;;21.80;9.00;;;;;;;16.95;74.70;96890.67;105904;1260;107048;-91
2023/10/20 15:28:22;;;;;;;22.50;9.90;;;;;;;16.93;74.76;96891.27;106029;1265;95321;-91
2023/10/20 15:30:53;;;;;;;18.90;9.00;;;;;;;16.92;74.67;96890.38;106123;1266;95394;-92
2023/10/20 15:33:41;;;;;;;22.90;8.70;;;;;;;16.90;74.80;96888.27;105862;1263;108783;-91
2023/10/20 15:36:09;;;;;;;21.80;8.60;;;;;;;16.88;74.61;96889.73;105840;1264;95553;-90
2023/10/20 15:38:44;;;;;;;27.00;10.10;;;;;;;16.86;74.62;96891.00;105852;1264;107754;-90
2023/10/20 15:42:00;;;;;;;25.00;10.20;;;;;;;16.85;74.63;96888.52;105890;1267;95205;-90
2023/10/20 15:44:28;;;;;;;19.40;8.60;;;;;;;16.84;74.82;96890.00;105943;1263;95256;-90
2023/10/20 15:47:18;;;;;;;26.40;9.10;;;;;;;16.84;74.68;96899.45;105821;1264;108408;-91
2023/10/20 15:49:46;;;;;;;22.30;9.50;;;;;;;16.84;74.66;96895.61;105733;1263;95880;-90
2023/10/20 15:52:14;;;;;;;21.40;9.60;;;;;;;16.84;74.68;96892.06;105598;1267;95275;-91
2023/10/20 15:54:41;;;;;;;25.90;10.40;;;;;;;16.82;74.71;96897.71;105672;1270;95363;-90
2023/10/20 15:57:10;;;;;;;19.90;9.00;;;;;;;16.82;74.73;96901.56;105651;1269;95373;-91
2023/10/20 15:59:38;;;;;;;25.30;12.20;;;;;;;16.80;74.65;96898.70;105647;1270;108038;-91
2023/10/20 16:02:28;;;;;;;20.40;8.90;;;;;;;16.78;74.74;96900.45;105579;1270;96188;-91
2023/10/20 16:04:59;;;;;;;25.00;8.80;;;;;;;16.76;74.62;96900.39;105591;1264;107620;-91
2023/10/20 16:07:30;;;;;;;21.80;9.40;;;;;;;16.73;74.56;96901.45;105672;1269;95356;-91
2023/10/20 16:09:59;;;;;;;19.70;8.30;;;;;;;16.73;74.75;96907.04;105538;1269;95202;-90
2023/10/20 16:12:26;;;;;;;22.50;8.50;;;;;;;16.73;74.71;96902.61;105604;1264;95744;-90
2023/10/20 16:14:54;;;;;;;21.10;8.10;;;;;;;16.72;74.69;96906.79;105580;1279;95316;-90
2023/10/20 16:17:24;;;;;;;25.70;8.30;;;;;;;16.73;74.72;96905.75;105682;1269;107745;-91
2023/10/20 16:19:54;;;;;;;22.30;9.40;;;;;;;16.73;74.67;96906.09;105894;1269;94261;-90
2023/10/20 16:22:21;;;;;;;22.30;10.40;;;;;;;16.72;74.54;96913.23;105630;1268;95242;-89
2023/10/20 16:24:51;;;;;;;22.90;10.10;;;;;;;16.72;74.58;96912.33;105986;1263;95177;-90
2023/10/20 16:27:21;;;;;;;21.80;9.20;;;;;;;16.73;74.71;96913.36;105409;1263;95868;-90
2023/10/20 16:29:51;;;;;;;23.00;9.60;;;;;;;16.73;74.77;96919.23;105549;1269;107669;-89
2023/10/20 16:32:21;;;;;;;22.40;10.10;;;;;;;16.72;74.71;96917.69;105577;1262;95250;-90
2023/10/20 16:34:48;;;;;;;23.20;9.50;;;;;;;16.73;74.63;96913.07;105490;1267;95343;-90
2023/10/20 16:37:15;;;;;;;22.40;9.10;;;;;;;16.73;74.68;96913.27;105589;1267;95274;-91
2023/10/20 16:39:42;;;;;;;23.10;9.50;;;;;;;16.73;74.64;96913.77;105453;1277;95278;-90
2023/10/20 16:42:10;;;;;;;20.10;8.20;;;;;;;16.73;74.76;96923.96;105382;1269;95252;-90
2023/10/20 16:44:37;;;;;;;19.90;8.10;;;;;;;16.74;74.73;96927.65;105466;1270;95193;-89
2023/10/20 16:47:04;;;;;;;22.60;9.90;;;;;;;16.75;74.76;96925.55;105447;1264;96336;-90
2023/10/20 16:49:31;;;;;;;22.40;10.20;;;;;;;16.76;74.74;96916.83;105503;1264;96568;-89
2023/10/20 16:51:58;;;;;;;24.00;9.10;;;;;;;16.77;74.78;96922.61;105552;1277;95252;-89
2023/10/20 16:54:28;;;;;;;25.80;9.30;;;;;;;16.77;74.78;96922.45;105603;1264;95180;-90
2023/10/20 16:56:55;;;;;;;21.00;8.30;;;;;;;16.77;74.80;96918.98;105539;1263;95297;-91
2023/10/20 16:59:28;;;;;;;22.00;8.60;;;;;;;16.77;74.84;96917.83;105437;1269;95213;-89
2023/10/20 17:01:55;;;;;;;17.40;8.00;;;;;;;16.76;74.79;96915.98;105489;1276;108908;-91
2023/10/20 17:04:39;;;;;;;22.60;9.40;;;;;;;16.76;74.86;96919.39;105602;1267;95351;-90
2023/10/20 17:07:07;;;;;;;22.30;7.90;;;;;;;16.76;74.83;96924.23;105612;1269;107702;-90
2023/10/20 17:09:36;;;;;;;21.50;8.70;;;;;;;16.76;74.85;96929.67;105549;1267;95281;-90
2023/10/20 17:12:09;;;;;;;22.00;7.90;;;;;;;16.77;74.91;96927.54;105642;1267;95283;-90
2023/10/20 17:14:39;;;;;;;18.10;7.70;;;;;;;16.77;74.77;96922.74;105550;1268;108130;-90
2023/10/20 17:17:08;;;;;;;22.00;8.40;;;;;;;16.76;74.71;96923.02;105807;1264;95325;-91
2023/10/20 17:19:36;;;;;;;19.10;8.60;;;;;;;16.77;74.77;96918.98;106942;1264;106244;-88
2023/10/20 17:26:06;;;;;;;19.60;8.30;;;;;;;16.76;74.87;96915.39;108134;1265;92674;-89
2023/10/20 17:28:33;;;;;;;24.20;8.30;;;;;;;16.76;74.83;96910.39;108079;1265;93354;-89
2023/10/20 17:31:02;;;;;;;20.60;8.50;;;;;;;16.78;74.77;96905.31;108088;1266;92504;-89
2023/10/20 17:33:29;;;;;;;21.30;7.90;;;;;;;16.78;74.72;96901.92;108111;1265;106436;-90
2023/10/20 17:36:07;;;;;;;23.50;9.30;;;;;;;16.80;74.88;96905.48;108146;1265;92625;-89
2023/10/20 17:38:34;;;;;;;20.00;8.60;;;;;;;16.82;74.91;96906.02;108146;1266;92589;-91
2023/10/20 17:41:10;;;;;;;22.60;8.20;;;;;;;16.81;74.72;96904.45;108150;1265;107190;-90
2023/10/20 17:43:37;;;;;;;20.50;8.50;;;;;;;16.83;74.82;96902.35;107494;1265;94146;-91
2023/10/20 17:46:10;;;;;;;27.90;9.10;;;;;;;16.82;74.80;96900.26;107698;1266;107700;-93
2023/10/20 17:48:37;;;;;;;23.50;9.10;;;;;;;16.83;74.92;96905.37;107403;1264;94351;-89
2023/10/20 17:51:04;;;;;;;24.50;9.60;;;;;;;16.83;74.91;96906.27;107848;1266;94484;-91
2023/10/20 17:53:32;;;;;;;23.30;9.10;;;;;;;16.82;74.80;96905.40;107737;1266;94280;-92
2023/10/20 17:56:04;;;;;;;24.20;9.00;;;;;;;16.81;74.87;96904.04;107777;1268;94266;-93
2023/10/20 17:58:32;;;;;;;19.90;8.10;;;;;;;16.78;74.79;96901.35;107640;1262;106283;-91
2023/10/20 18:01:09;;;;;;;22.60;9.00;;;;;;;16.76;74.89;96895.36;107827;1262;95259;-92
2023/10/20 18:03:42;;;;;;;22.00;8.90;;;;;;;16.74;74.83;96898.13;107724;1262;95141;-90
2023/10/20 18:06:12;;;;;;;22.90;9.10;;;;;;;16.72;74.82;96899.61;107716;1262;107165;-90
2023/10/20 18:08:42;;;;;;;21.70;8.70;;;;;;;16.70;74.83;96900.23;107004;1268;95205;-91
2023/10/20 18:11:12;;;;;;;22.90;9.90;;;;;;;16.68;74.91;96902.70;106153;1262;106294;-90
2023/10/20 18:13:44;;;;;;;20.10;8.10;;;;;;;16.66;74.78;96902.49;106798;1264;95232;-91
2023/10/20 18:16:16;;;;;;;23.30;9.00;;;;;;;16.67;74.92;96903.65;105856;1265;95146;-90
2023/10/20 18:18:51;;;;;;;19.90;8.50;;;;;;;16.68;75.11;96907.55;105617;1264;108551;-91
2023/10/20 18:21:23;;;;;;;21.20;8.70;;;;;;;16.70;75.19;96904.98;105613;1267;95367;-91
2023/10/20 18:23:57;;;;;;;20.20;8.40;;;;;;;16.70;75.02;96904.44;105820;1267;107572;-91
2023/10/20 18:27:00;;;;;;;20.90;8.50;;;;;;;16.71;74.96;96906.91;105892;1263;95349;-92
2023/10/20 18:29:30;;;;;;;21.40;9.00;;;;;;;16.72;75.10;96907.69;105654;1268;95190;-91
2023/10/20 18:31:58;;;;;;;26.50;9.20;;;;;;;16.73;75.02;96912.62;105790;1264;95317;-91
2023/10/20 18:34:28;;;;;;;19.90;8.20;;;;;;;16.73;75.06;96917.61;105744;1262;95471;-91
2023/10/20 18:36:57;;;;;;;22.80;8.20;;;;;;;16.73;75.01;96920.63;105772;1264;107830;-90
2023/10/20 18:39:25;;;;;;;21.40;7.40;;;;;;;16.72;75.08;96920.87;105554;1264;96196;-89
2023/10/20 18:41:52;;;;;;;19.80;7.70;;;;;;;16.72;75.18;96925.00;105498;1264;94320;-90
2023/10/20 18:44:20;;;;;;;19.30;8.40;;;;;;;16.72;75.08;96932.52;105840;1262;108825;-90
2023/10/20 18:46:49;;;;;;;24.20;8.30;;;;;;;16.71;75.09;96931.12;105873;1267;95806;-90
2023/10/20 18:49:17;;;;;;;20.70;7.90;;;;;;;16.72;75.07;96933.92;105693;1262;96490;-90
2023/10/20 18:51:43;;;;;;;24.50;8.10;;;;;;;16.72;74.99;96937.77;105717;1265;96635;-90
2023/10/20 18:54:11;;;;;;;23.60;9.30;;;;;;;16.72;75.19;96937.80;105594;1263;97092;-90
2023/10/20 18:56:40;;;;;;;25.30;8.40;;;;;;;16.71;75.17;96934.62;105818;1264;110080;-90
2023/10/20 18:59:08;;;;;;;21.60;9.20;;;;;;;16.72;75.25;96939.16;105661;1263;97872;-90
2023/10/20 19:01:36;;;;;;;25.60;8.70;;;;;;;16.75;75.15;96936.86;105738;1262;108504;-90
2023/10/20 19:04:05;;;;;;;27.20;8.10;;;;;;;16.76;75.17;96939.71;105756;1268;96707;-91
2023/10/20 19:06:32;;;;;;;25.60;9.20;;;;;;;16.77;75.06;96946.60;105644;1264;97944;-91
2023/10/20 19:09:03;;;;;;;19.60;7.60;;;;;;;16.78;75.25;96944.34;105794;1263;109923;-90
2023/10/20 19:11:31;;;;;;;21.70;8.80;;;;;;;16.79;75.23;96937.41;105781;1267;96671;-90
2023/10/20 19:14:24;;;;;;;23.80;7.80;;;;;;;16.79;75.03;96943.61;105823;1262;106630;-89
2023/10/20 19:17:32;;;;;;;23.00;8.30;;;;;;;16.81;75.17;96945.13;106106;1262;98038;-90
2023/10/20 19:20:16;;;;;;;23.60;8.90;;;;;;;16.82;75.24;96952.33;106064;1262;95224;-90
2023/10/20 19:23:11;;;;;;;24.20;8.10;;;;;;;16.83;75.31;96955.30;105853;1263;110102;-90
2023/10/20 19:26:14;;;;;;;21.50;7.90;;;;;;;16.83;75.26;96955.80;105991;1264;96721;-90
2023/10/20 19:29:04;;;;;;;20.10;8.30;;;;;;;16.86;75.34;96953.13;106074;1265;107333;-92
2023/10/20 19:31:55;;;;;;;16.80;7.60;;;;;;;16.88;75.22;96957.17;105919;1268;97739;-90
2023/10/20 19:34:30;;;;;;;23.50;9.00;;;;;;;16.88;75.19;96953.08;106034;1262;97904;-91
2023/10/20 19:36:59;;;;;;;17.00;6.70;;;;;;;16.88;75.28;96954.48;105994;1266;110047;-90
2023/10/20 19:39:50;;;;;;;19.50;8.20;;;;;;;16.88;75.16;96958.20;105770;1268;96710;-89
2023/10/20 19:42:17;;;;;;;21.30;7.70;;;;;;;16.87;75.15;96960.18;105838;1262;107671;-90
2023/10/20 19:44:44;;;;;;;21.40;8.40;;;;;;;16.87;75.11;96959.28;105750;1270;96741;-90
2023/10/20 19:47:12;;;;;;;20.20;7.50;;;;;;;16.88;75.26;96964.52;105836;1263;96585;-91
2023/10/20 19:49:54;;;;;;;25.30;8.30;;;;;;;16.88;75.04;96963.28;106095;1263;96674;-92
2023/10/20 19:52:21;;;;;;;25.50;9.30;;;;;;;16.86;75.20;96968.65;106112;1262;96718;-91
2023/10/20 19:54:52;;;;;;;22.00;8.10;;;;;;;16.86;75.36;96965.96;106209;1265;97528;-90
2023/10/20 19:57:56;;;;;;;20.50;7.60;;;;;;;16.86;75.27;96965.71;105945;1263;96603;-92
2023/10/20 20:00:32;;;;;;;20.50;7.90;;;;;;;16.85;75.33;96963.41;105982;1263;96614;-92
2023/10/20 20:03:33;;;;;;;21.90;7.40;;;;;;;16.85;75.38;96965.02;106008;1263;109707;-91
2023/10/20 20:06:09;;;;;;;24.20;7.20;;;;;;;16.85;75.38;96972.20;106376;1266;97827;-92
2023/10/20 20:08:48;;;;;;;23.20;7.90;;;;;;;16.87;75.34;96970.59;106383;1264;107173;-92
2023/10/20 20:11:16;;;;;;;20.40;7.60;;;;;;;16.87;75.23;96973.62;106549;1264;96585;-89
2023/10/20 20:13:44;;;;;;;22.60;8.40;;;;;;;16.89;75.28;96981.23;107760;1262;94682;-91
2023/10/20 20:16:15;;;;;;;25.60;7.80;;;;;;;16.91;75.35;96981.99;107812;1262;108637;-90
2023/10/20 20:18:44;;;;;;;25.50;7.20;;;;;;;16.96;75.39;96984.38;107954;1262;95523;-91
2023/10/20 20:21:22;;;;;;;23.00;8.90;;;;;;;17.00;75.36;96981.39;107820;1263;106869;-91
2023/10/20 20:23:50;;;;;;;26.20;7.80;;;;;;;17.03;75.28;96984.73;107565;1262;96501;-92
2023/10/20 20:26:24;;;;;;;24.30;8.00;;;;;;;17.06;75.19;96983.63;107912;1262;94064;-92
2023/10/20 20:29:11;;;;;;;19.80;7.30;;;;;;;17.07;75.15;96984.50;107615;1263;110433;-91
2023/10/20 20:31:39;;;;;;;22.80;8.00;;;;;;;17.07;75.10;96985.04;107637;1262;95534;-92
2023/10/20 20:34:09;;;;;;;20.40;7.00;;;;;;;17.08;75.27;96980.90;107200;1263;106302;-92
2023/10/20 20:36:39;;;;;;;21.30;7.10;;;;;;;17.07;75.12;96979.33;106382;1264;96678;-90
2023/10/20 20:39:29;;;;;;;22.80;8.20;;;;;;;17.08;75.20;96978.52;106137;1264;96613;-90
2023/10/20 20:42:17;;;;;;;23.30;7.50;;;;;;;17.07;74.95;96974.92;106104;1262;108454;-91
2023/10/20 20:44:53;;;;;;;23.90;8.70;;;;;;;17.06;75.21;96980.23;106189;1262;96534;-89
2023/10/20 20:47:56;;;;;;;23.60;7.40;;;;;;;17.08;75.22;96969.51;106140;1265;106998;-90
2023/10/20 20:50:24;;;;;;;20.20;7.90;;;;;;;17.09;75.08;96967.89;106228;1268;96731;-90
2023/10/20 20:53:15;;;;;;;26.20;8.10;;;;;;;17.09;75.20;96962.85;106180;1267;96527;-90
2023/10/20 20:55:46;;;;;;;21.20;7.50;;;;;;;17.08;75.13;96962.19;106089;1266;109403;-89
2023/10/20 20:58:14;;;;;;;19.10;7.20;;;;;;;17.07;75.11;96964.38;105980;1265;96564;-91
2023/10/20 21:00:45;;;;;;;20.70;7.50;;;;;;;17.06;75.16;96959.20;106232;1265;107870;-91
2023/10/20 21:03:14;;;;;;;24.60;7.50;;;;;;;17.06;75.21;96958.71;105950;1262;96662;-91
2023/10/20 21:06:08;;;;;;;25.90;8.70;;;;;;;17.06;75.09;96957.35;106014;1268;96583;-91
2023/10/20 21:08:40;;;;;;;21.30;7.50;;;;;;;17.06;75.12;96957.80;105994;1262;109445;-90
2023/10/20 21:12:00;;;;;;;26.10;7.20;;;;;;;17.07;75.17;96957.34;106095;1268;97990;-90
2023/10/20 21:14:37;;;;;;;20.30;7.60;;;;;;;17.06;75.01;96958.26;105994;1263;109179;-90
2023/10/20 21:17:24;;;;;;;22.00;7.20;;;;;;;17.04;75.02;96964.17;106070;1267;96653;-90
2023/10/20 21:19:54;;;;;;;26.00;7.30;;;;;;;17.03;75.04;96964.48;106257;1267;97577;-90
2023/10/20 21:22:25;;;;;;;26.20;7.90;;;;;;;17.04;75.19;96963.50;106225;1269;109945;-89
2023/10/20 21:25:13;;;;;;;23.10;7.30;;;;;;;17.07;75.15;96964.50;106437;1265;96521;-89
2023/10/20 21:27:42;;;;;;;25.70;7.60;;;;;;;17.09;75.19;96964.71;106073;1262;106748;-90
2023/10/20 21:30:19;;;;;;;20.80;6.80;;;;;;;17.10;75.05;96970.38;106056;1268;96988;-90
2023/10/20 21:32:54;;;;;;;24.40;8.20;;;;;;;17.11;75.06;96967.73;106048;1269;96564;-90
2023/10/20 21:36:13;;;;;;;23.40;8.10;;;;;;;17.12;75.07;96968.35;106140;1262;109544;-91
2023/10/20 21:39:01;;;;;;;24.30;7.70;;;;;;;17.12;74.96;96971.70;106154;1266;96476;-89
2023/10/20 21:41:54;;;;;;;24.40;7.70;;;;;;;17.10;75.03;96972.52;106209;1262;107729;-91
2023/10/20 21:44:27;;;;;;;30.60;10.00;;;;;;;17.10;75.01;96969.51;106117;1263;96597;-91
2023/10/20 21:47:06;;;;;;;20.20;7.30;;;;;;;17.10;75.00;96966.58;105990;1265;96809;-91
2023/10/20 21:49:53;;;;;;;21.80;8.10;;;;;;;17.11;75.02;96967.48;106172;1261;111039;-90
2023/10/20 21:52:50;;;;;;;28.40;8.20;;;;;;;17.11;74.94;96971.62;106211;1268;96655;-91
2023/10/20 21:55:44;;;;;;;26.10;7.40;;;;;;;17.12;75.00;96972.31;106093;1263;109261;-88
2023/10/20 21:58:38;;;;;;;19.30;7.20;;;;;;;17.13;75.01;96975.20;106319;1263;96616;-90
2023/10/20 22:01:14;;;;;;;20.30;7.60;;;;;;;17.13;74.90;96973.44;106288;1264;96571;-91
2023/10/20 22:04:17;;;;;;;20.70;7.50;;;;;;;17.11;74.86;96980.79;106457;1262;108924;-91
2023/10/20 22:06:49;;;;;;;22.70;6.90;;;;;;;17.10;74.82;96981.86;106329;1265;96863;-91
2023/10/20 22:09:22;;;;;;;23.40;7.80;;;;;;;17.10;74.90;96987.23;106095;1263;107294;-91
2023/10/20 22:12:02;;;;;;;21.90;7.40;;;;;;;17.09;74.87;96980.83;106167;1269;96704;-90
2023/10/20 22:16:29;;;;;;;27.10;8.10;;;;;;;17.10;74.86;96986.65;106023;1262;97904;-91
2023/10/20 22:19:00;;;;;;;22.40;7.50;;;;;;;17.12;74.83;96989.42;105861;1266;109956;-89
2023/10/20 22:21:33;;;;;;;23.70;7.40;;;;;;;17.16;74.76;96992.35;105971;1263;95477;-89
2023/10/20 22:27:28;;;;;;;22.90;7.40;;;;;;;17.23;74.78;96992.29;105789;1263;96525;-91
2023/10/20 22:30:10;;;;;;;;;;;;;;;;;;;;;
2023/10/20 22:33:28;;;;;;;23.40;7.50;;;;;;;17.33;74.89;96992.53;105881;1269;111625;-90
2023/10/20 22:36:19;;;;;;;23.90;7.10;;;;;;;17.44;74.80;96990.56;105849;1263;96552;-89
2023/10/20 22:39:58;;;;;;;21.50;7.50;;;;;;;17.54;74.63;96986.95;105875;1262;108186;-91
2023/10/20 22:42:53;;;;;;;27.00;8.20;;;;;;;17.59;74.83;96983.23;105869;1268;96629;-91
2023/10/20 22:46:03;;;;;;;22.50;7.00;;;;;;;17.63;74.62;96982.16;105888;1265;96639;-91
2023/10/20 22:48:53;;;;;;;20.50;7.20;;;;;;;17.68;74.61;96983.89;105954;1263;111273;-91